Overview Statistics Trail Chart Weather Telemetry Raw packets
 

This is the latest recevied weather packets stored in our database for station/object IZ7EXI-13. If no packets are shown the sender has not sent any weather packets the latest 10 day(s).

<< 1 2 3 4 5 6 7 >>
Time Temp. Humidity Pressure Rain* Wind** Luminosity Snow
1788612861 38.33° C 23% 1018.4 hPa - - - -
1788611960 38.89° C 22% 1018.4 hPa - - - -
1788611091 38.89° C 23% 1018.6 hPa - - - -
1788611060 38.89° C 23% 1018.6 hPa - - - -
1788610197 38.33° C 28% 1018.8 hPa - - - -
1788610160 38.33° C 28% 1018.8 hPa - - - -
1788609260 38.33° C 31% 1019 hPa - - - -
1788608392 37.78° C 29% 1019.1 hPa - - - -
1788608360 37.78° C 29% 1019.1 hPa - - - -
1788607492 37.22° C 35% 1019.3 hPa - - - -
1788607459 37.22° C 35% 1019.3 hPa - - - -
1788606593 36.11° C 38% 1019.4 hPa - - - -
1788606559 36.11° C 38% 1019.4 hPa - - - -
1788605659 35.56° C 36% 1019.5 hPa - - - -
1788604797 35° C 32% 1019.5 hPa - - - -
1788604759 35° C 32% 1019.5 hPa - - - -
1788603858 34.44° C 33% 1019.6 hPa - - - -
1788602958 33.89° C 34% 1019.7 hPa - - - -
1788602101 32.22° C 42% 1019.8 hPa - - - -
1788602095 32.22° C 42% 1019.8 hPa - - - -
1788602057 32.22° C 42% 1019.8 hPa - - - -
1788601196 31.67° C 46% 1020.1 hPa - - - -
1788601156 31.67° C 46% 1020.1 hPa - - - -
1788600245 31.67° C 45% 1020 hPa - - - -
1788599345 31.11° C 47% 1020 hPa - - - -

* Rain since midnight (hover to see other rain measurements)
** Current wind speed in m/s (hover to see current wind gust speed)